Enschede, Netherlands
Current Conditions -  °F | °C
As of 5:50 AM on Friday 31 Oct 2014 (Local Time) from EDDG Reporting Station
Light Fog Light Fog  
Wind Chill: 52°   Ceiling: Unl
Heat Index: 52°   Visibility: 4mi
Dew Point: 52°   Wind: 2mph
Humidity: 100%   Direction: 110°ESE
Pressure: 30.18"   Gusts: NA
Location:  52.22°N, 6.9°E
Report Text: EDDG 310450Z 11002KT 6000 MIFG NSC 11/11 Q1022 TEMPO 4000
Loading
Personal Weather Stations






























Interactive Weather Map
Tropical Storm Tracking
New forecast layout! Learn more

10-Day Weather Forecast

Advertisements
Track Severe Weather on mobile